createdAt,value
2023-04-29T00:01:59.747Z,18.71
2023-04-29T00:07:50.072Z,18.72
2023-04-29T00:13:36.111Z,18.71
2023-04-29T00:19:28.976Z,18.69
2023-04-29T00:25:14.284Z,18.7
2023-04-29T00:31:01.072Z,18.68
2023-04-29T00:37:00.879Z,18.66
2023-04-29T00:42:47.739Z,18.66
2023-04-29T00:48:34.042Z,18.62
2023-04-29T00:54:22.043Z,18.58
2023-04-29T01:00:15.163Z,18.55
2023-04-29T01:06:09.097Z,18.52
2023-04-29T01:12:02.689Z,18.51
2023-04-29T01:18:00.316Z,18.48
2023-04-29T01:23:45.925Z,18.46
2023-04-29T01:29:35.454Z,18.45
2023-04-29T01:35:28.938Z,18.4
2023-04-29T01:41:15.814Z,18.4
2023-04-29T01:47:09.210Z,18.35
2023-04-29T01:53:02.257Z,18.39
2023-04-29T01:59:03.956Z,18.62
2023-04-29T02:04:53.356Z,18.71
2023-04-29T02:10:49.035Z,18.71
2023-04-29T02:16:35.540Z,18.53
2023-04-29T02:22:31.859Z,18.38
2023-04-29T02:28:26.598Z,18.3
2023-04-29T02:34:13.397Z,18.24
2023-04-29T02:39:58.702Z,18.2
2023-04-29T02:45:44.790Z,18.15
2023-04-29T02:51:36.452Z,18.12
2023-04-29T02:57:22.975Z,18.08
2023-04-29T03:03:14.234Z,18.06
2023-04-29T03:09:00.648Z,18
2023-04-29T03:14:56.313Z,17.93
2023-04-29T03:20:52.500Z,17.9
2023-04-29T03:26:38.491Z,17.89
2023-04-29T03:32:25.315Z,17.86
2023-04-29T03:38:13.053Z,17.84
2023-04-29T03:44:11.332Z,17.78
2023-04-29T03:50:02.790Z,17.78
2023-04-29T03:55:53.683Z,17.76
2023-04-29T04:01:39.476Z,17.73
2023-04-29T04:07:26.831Z,17.69
2023-04-29T04:13:13.543Z,17.66
2023-04-29T04:19:08.904Z,17.66
2023-04-29T04:25:14.709Z,17.63
2023-04-29T04:31:00.454Z,17.62
2023-04-29T04:36:56.244Z,17.58
2023-04-29T04:42:45.072Z,17.55
2023-04-29T04:48:37.053Z,17.52
2023-04-29T04:54:25.175Z,17.48
2023-04-29T05:00:19.382Z,17.46
2023-04-29T05:06:09.453Z,17.42
2023-04-29T05:11:58.562Z,17.4
2023-04-29T05:17:50.861Z,17.4
2023-04-29T05:23:39.501Z,17.43
2023-04-29T05:29:26.439Z,17.44
2023-04-29T05:35:17.669Z,17.43
2023-04-29T05:41:12.057Z,17.43
2023-04-29T05:47:07.310Z,17.46
2023-04-29T05:52:53.486Z,17.47
2023-04-29T05:58:38.834Z,17.48
2023-04-29T06:04:25.267Z,17.47
2023-04-29T06:10:18.250Z,17.5
2023-04-29T06:16:12.158Z,17.52
2023-04-29T06:21:59.512Z,17.53
2023-04-29T06:27:57.020Z,17.56
2023-04-29T06:33:49.127Z,17.64
2023-04-29T06:39:40.520Z,17.86
2023-04-29T06:45:31.919Z,17.98
2023-04-29T06:51:28.178Z,17.83
2023-04-29T06:57:19.428Z,17.67
2023-04-29T07:03:05.552Z,17.65
2023-04-29T07:08:56.847Z,17.61
2023-04-29T07:14:43.740Z,17.58
2023-04-29T07:20:36.583Z,17.63
2023-04-29T07:26:27.748Z,17.66
2023-04-29T07:32:16.736Z,17.7
2023-04-29T07:38:02.903Z,17.68
2023-04-29T07:43:57.828Z,17.66
2023-04-29T07:49:43.943Z,17.71
2023-04-29T07:55:29.568Z,17.73
2023-04-29T08:01:14.760Z,17.7
2023-04-29T08:07:03.880Z,17.67
2023-04-29T08:12:50.436Z,17.66
2023-04-29T08:18:36.553Z,17.67
2023-04-29T08:24:22.054Z,17.75
2023-04-29T08:30:11.979Z,17.87
2023-04-29T08:36:02.574Z,18.02
2023-04-29T08:41:48.091Z,18.09
2023-04-29T08:47:38.483Z,18.18
2023-04-29T08:53:34.507Z,18.26
2023-04-29T08:59:26.333Z,18.27
2023-04-29T09:05:30.944Z,18.24
2023-04-29T09:11:18.199Z,18.24
2023-04-29T09:17:08.865Z,18.29
2023-04-29T09:22:56.931Z,18.29
2023-04-29T09:29:06.734Z,18.36
2023-04-29T09:34:53.462Z,18.49
2023-04-29T09:40:50.628Z,18.62
2023-04-29T09:46:55.164Z,18.95
2023-04-29T09:52:44.439Z,19.22
2023-04-29T09:58:35.375Z,19.4
2023-04-29T10:04:21.695Z,19.66
2023-04-29T10:10:12.685Z,19.9
2023-04-29T10:16:08.266Z,20
2023-04-29T10:21:55.381Z,20.06
2023-04-29T10:27:42.511Z,20.01
2023-04-29T10:33:31.986Z,19.91
2023-04-29T10:39:24.458Z,19.83
2023-04-29T10:45:33.612Z,19.82
2023-04-29T10:51:34.428Z,19.85
2023-04-29T10:57:24.432Z,20.23
2023-04-29T11:03:17.530Z,20.73
2023-04-29T11:09:07.976Z,21.05
2023-04-29T11:14:53.759Z,21.3
2023-04-29T11:20:59.280Z,21.3
2023-04-29T11:26:48.591Z,21.4
2023-04-29T11:32:36.846Z,21.34
2023-04-29T11:38:23.749Z,21.18
2023-04-29T11:44:14.480Z,20.94
2023-04-29T11:50:08.843Z,20.8
2023-04-29T11:55:53.990Z,20.76
2023-04-29T12:01:42.845Z,20.92
2023-04-29T12:07:29.040Z,21.08
2023-04-29T12:13:15.794Z,21.11
2023-04-29T12:19:04.236Z,21.2
2023-04-29T12:25:14.199Z,21.6
2023-04-29T12:31:09.333Z,22
2023-04-29T12:36:55.812Z,21.85
2023-04-29T12:42:40.616Z,21.75
2023-04-29T12:48:30.761Z,21.85
2023-04-29T12:54:18.058Z,22
2023-04-29T13:00:02.785Z,22.17
2023-04-29T13:05:47.393Z,22.53
2023-04-29T13:11:34.253Z,22.57
2023-04-29T13:17:19.505Z,22.59
2023-04-29T13:23:04.118Z,22.54
2023-04-29T13:28:48.883Z,22.56
2023-04-29T13:34:33.667Z,22.75
2023-04-29T13:40:21.098Z,23.15
2023-04-29T13:46:11.400Z,23.45
2023-04-29T13:52:33.905Z,23.54
2023-04-29T14:03:56.850Z,23.31
2023-04-29T14:09:43.168Z,23.3
2023-04-29T14:15:28.877Z,23.42
2023-04-29T14:21:13.741Z,23.29
2023-04-29T14:26:58.591Z,23.22
2023-04-29T14:32:43.319Z,23.12
2023-04-29T14:38:28.276Z,23.19
2023-04-29T14:44:13.289Z,23.2
2023-04-29T14:49:57.992Z,23.16
2023-04-29T14:55:42.804Z,23.13
2023-04-29T15:01:28.302Z,23.21
2023-04-29T15:07:16.308Z,23.26
2023-04-29T15:13:00.909Z,23.14
2023-04-29T15:18:45.868Z,23.16
2023-04-29T15:24:30.724Z,23.27
2023-04-29T15:30:16.148Z,23.16
2023-04-29T15:36:00.670Z,23.06
2023-04-29T15:41:45.428Z,23.05
2023-04-29T15:47:30.221Z,22.92
2023-04-29T15:53:15.391Z,22.89
2023-04-29T15:59:00.150Z,22.92
2023-04-29T16:04:44.967Z,22.93
2023-04-29T16:10:29.684Z,23.14
2023-04-29T16:16:14.982Z,23.1
2023-04-29T16:21:59.745Z,23.04
2023-04-29T16:27:44.711Z,22.87
2023-04-29T16:33:29.458Z,22.81
2023-04-29T16:39:14.262Z,22.88
2023-04-29T16:44:59.054Z,22.88
2023-04-29T16:50:43.761Z,22.9
2023-04-29T16:56:29.872Z,22.84
2023-04-29T17:02:14.584Z,22.91
2023-04-29T17:08:00.282Z,22.74
2023-04-29T17:13:44.965Z,22.76
2023-04-29T17:19:30.592Z,23.73
2023-04-29T17:25:15.282Z,24.54
2023-04-29T17:31:00.030Z,23.91
2023-04-29T17:36:44.895Z,23.89
2023-04-29T17:42:29.573Z,23.51
2023-04-29T17:48:14.183Z,23.27
2023-04-29T17:53:58.825Z,23.01
2023-04-29T17:59:43.221Z,23.06
2023-04-29T18:05:27.883Z,22.91
2023-04-29T18:11:12.710Z,22.47
2023-04-29T18:16:57.414Z,22.21
2023-04-29T18:22:44.384Z,22
2023-04-29T18:28:29.049Z,21.82
2023-04-29T18:34:14.172Z,21.63
2023-04-29T18:39:58.934Z,21.44
2023-04-29T18:45:43.679Z,21.27
2023-04-29T18:51:29.603Z,21.15
2023-04-29T18:57:14.109Z,20.98
2023-04-29T19:02:59.087Z,20.85
2023-04-29T19:08:43.765Z,20.74
2023-04-29T19:14:28.430Z,20.6
2023-04-29T19:20:13.438Z,20.48
2023-04-29T19:26:00.056Z,20.37
2023-04-29T19:31:44.848Z,20.23
2023-04-29T19:37:29.921Z,20.18
2023-04-29T19:43:14.854Z,20.04
2023-04-29T19:49:00.418Z,19.88
2023-04-29T19:54:47.152Z,19.74
2023-04-29T20:00:31.914Z,19.61
2023-04-29T20:06:17.200Z,19.49
2023-04-29T20:12:01.806Z,19.4
2023-04-29T20:17:46.544Z,19.28
2023-04-29T20:23:31.256Z,19.18
2023-04-29T20:29:15.916Z,19.09
2023-04-29T20:35:00.604Z,18.98
2023-04-29T20:40:45.385Z,18.89
2023-04-29T20:46:30.338Z,18.84
2023-04-29T20:52:15.736Z,18.74
2023-04-29T20:58:00.346Z,18.61
2023-04-29T21:03:45.134Z,18.54
2023-04-29T21:09:29.916Z,18.46
2023-04-29T21:15:15.076Z,18.43
2023-04-29T21:21:00.738Z,18.3
2023-04-29T21:26:45.384Z,18.19
2023-04-29T21:32:30.211Z,18.13
2023-04-29T21:38:15.463Z,18.03
2023-04-29T21:44:00.914Z,17.96
2023-04-29T21:49:45.600Z,17.87
2023-04-29T21:55:31.173Z,17.83
2023-04-29T22:01:16.255Z,17.74
2023-04-29T22:07:01.602Z,17.67
2023-04-29T22:12:46.325Z,17.59
2023-04-29T22:18:31.914Z,17.54
2023-04-29T22:24:16.957Z,17.44
2023-04-29T22:30:02.001Z,17.36
2023-04-29T22:35:46.841Z,17.32
2023-04-29T22:41:31.580Z,17.22
2023-04-29T22:47:16.289Z,17.16
2023-04-29T22:53:00.796Z,17.15
2023-04-29T22:58:45.449Z,17.04
2023-04-29T23:04:30.205Z,16.95
2023-04-29T23:10:15.265Z,16.91
2023-04-29T23:16:00.476Z,16.88
2023-04-29T23:21:45.458Z,16.79
2023-04-29T23:27:30.149Z,16.71
2023-04-29T23:33:15.077Z,16.67
2023-04-29T23:38:59.717Z,16.59
2023-04-29T23:44:44.384Z,16.55
2023-04-29T23:50:31.193Z,16.51
2023-04-29T23:56:16.049Z,16.41
